createdAt,value
2023-03-06T00:00:26.988Z,99769.56
2023-03-06T00:03:14.143Z,99772.00
2023-03-06T00:05:41.076Z,99766.06
2023-03-06T00:08:08.330Z,99764.47
2023-03-06T00:10:35.263Z,99758.38
2023-03-06T00:13:06.893Z,99763.75
2023-03-06T00:15:33.736Z,99765.38
2023-03-06T00:18:07.264Z,99761.81
2023-03-06T00:20:35.402Z,99754.09
2023-03-06T00:23:02.859Z,99759.25
2023-03-06T00:25:29.688Z,99749.56
2023-03-06T00:27:56.979Z,99756.47
2023-03-06T00:30:25.290Z,99750.16
2023-03-06T00:32:52.853Z,99747.50
2023-03-06T00:35:20.067Z,99741.50
2023-03-06T00:37:47.188Z,99736.38
2023-03-06T00:40:17.106Z,99743.50
2023-03-06T00:42:44.605Z,99747.09
2023-03-06T00:45:11.656Z,99739.13
2023-03-06T00:47:39.092Z,99734.00
2023-03-06T00:50:06.253Z,99741.88
2023-03-06T00:52:33.447Z,99746.19
2023-03-06T00:55:00.467Z,99746.34
2023-03-06T00:57:27.478Z,99745.63
2023-03-06T00:59:54.325Z,99734.63
2023-03-06T01:02:21.426Z,99731.44
2023-03-06T01:04:48.266Z,99733.25
2023-03-06T01:07:15.317Z,99727.25
2023-03-06T01:09:42.098Z,99725.88
2023-03-06T01:12:09.397Z,99725.97
2023-03-06T01:14:36.168Z,99723.13
2023-03-06T01:17:03.538Z,99719.75
2023-03-06T01:19:30.478Z,99719.75
2023-03-06T01:21:57.673Z,99719.38
2023-03-06T01:24:25.831Z,99708.16
2023-03-06T01:26:52.943Z,99707.84
2023-03-06T01:29:20.227Z,99708.94
2023-03-06T01:31:47.629Z,99713.38
2023-03-06T01:34:14.443Z,99714.28
2023-03-06T01:36:41.642Z,99710.94
2023-03-06T01:39:08.497Z,99710.69
2023-03-06T01:41:35.791Z,99701.03
2023-03-06T01:44:02.675Z,99699.19
2023-03-06T01:46:33.345Z,99703.50
2023-03-06T01:49:08.538Z,99689.59
2023-03-06T01:51:48.791Z,99695.28
2023-03-06T01:54:22.038Z,99697.28
2023-03-06T01:56:53.126Z,99700.03
2023-03-06T01:59:21.857Z,99700.09
2023-03-06T02:01:50.355Z,99702.50
2023-03-06T02:04:18.282Z,99699.91
2023-03-06T02:06:47.859Z,99688.91
2023-03-06T02:09:15.220Z,99695.03
2023-03-06T02:11:44.148Z,99702.31
2023-03-06T02:14:17.162Z,99699.13
2023-03-06T02:16:44.940Z,99693.97
2023-03-06T02:19:37.794Z,99700.22
2023-03-06T02:22:04.946Z,99696.44
2023-03-06T02:24:45.684Z,99698.16
2023-03-06T02:27:14.965Z,99694.09
2023-03-06T02:29:43.062Z,99686.84
2023-03-06T02:32:10.612Z,99692.19
2023-03-06T02:34:37.418Z,99690.28
2023-03-06T02:37:11.000Z,99686.00
2023-03-06T02:39:44.720Z,99693.66
2023-03-06T02:42:18.320Z,99684.84
2023-03-06T02:44:45.517Z,99689.09
2023-03-06T02:47:12.574Z,99696.00
2023-03-06T02:49:39.374Z,99690.97
2023-03-06T02:52:07.675Z,99700.91
2023-03-06T02:54:34.519Z,99700.06
2023-03-06T02:57:01.585Z,99698.50
2023-03-06T02:59:28.365Z,99691.47
2023-03-06T03:01:55.476Z,99700.41
2023-03-06T03:04:22.451Z,99703.78
2023-03-06T03:06:49.488Z,99695.91
2023-03-06T03:09:16.607Z,99703.78
2023-03-06T03:11:43.683Z,99695.19
2023-03-06T03:14:10.524Z,99701.00
2023-03-06T03:16:39.215Z,99690.69
2023-03-06T03:19:06.100Z,99694.94
2023-03-06T03:21:33.158Z,99689.75
2023-03-06T03:23:59.893Z,99687.28
2023-03-06T03:26:27.050Z,99690.69
2023-03-06T03:28:53.852Z,99692.38
2023-03-06T03:31:21.054Z,99680.84
2023-03-06T03:33:47.854Z,99683.69
2023-03-06T03:36:14.998Z,99684.75
2023-03-06T03:38:42.090Z,99676.34
2023-03-06T03:41:09.154Z,99683.31
2023-03-06T03:43:35.891Z,99681.34
2023-03-06T03:46:03.052Z,99679.53
2023-03-06T03:48:29.845Z,99675.56
2023-03-06T03:51:05.237Z,99668.03
2023-03-06T03:53:32.045Z,99675.75
2023-03-06T03:55:59.160Z,99674.75
2023-03-06T03:58:25.981Z,99679.88
2023-03-06T04:00:53.070Z,99682.41
2023-03-06T04:03:19.850Z,99674.69
2023-03-06T04:05:46.913Z,99678.88
2023-03-06T04:08:13.813Z,99682.34
2023-03-06T04:10:40.868Z,99684.88
2023-03-06T04:13:09.991Z,99676.28
2023-03-06T04:15:37.272Z,99671.72
2023-03-06T04:18:04.185Z,99670.72
2023-03-06T04:20:31.392Z,99673.22
2023-03-06T04:22:58.174Z,99677.63
2023-03-06T04:25:25.303Z,99678.38
2023-03-06T04:27:52.133Z,99683.06
2023-03-06T04:30:19.278Z,99689.31
2023-03-06T04:32:46.014Z,99677.19
2023-03-06T04:35:13.130Z,99683.31
2023-03-06T04:37:39.877Z,99680.66
2023-03-06T04:40:09.388Z,99674.31
2023-03-06T04:42:36.471Z,99682.41
2023-03-06T04:45:03.722Z,99681.66
2023-03-06T04:47:30.483Z,99682.81
2023-03-06T04:49:57.510Z,99680.81
2023-03-06T04:52:24.275Z,99677.38
2023-03-06T04:54:51.463Z,99677.63
2023-03-06T04:57:18.276Z,99671.81
2023-03-06T04:59:45.307Z,99670.84
2023-03-06T05:02:12.501Z,99670.06
2023-03-06T05:04:39.659Z,99671.56
2023-03-06T05:07:06.474Z,99668.84
2023-03-06T05:09:34.503Z,99674.50
2023-03-06T05:12:01.386Z,99672.09
2023-03-06T05:14:31.791Z,99666.59
2023-03-06T05:16:58.577Z,99672.66
2023-03-06T05:19:25.712Z,99673.66
2023-03-06T05:21:52.504Z,99668.31
2023-03-06T05:24:19.633Z,99666.75
2023-03-06T05:26:46.435Z,99675.34
2023-03-06T05:29:13.565Z,99670.13
2023-03-06T05:31:40.347Z,99676.41
2023-03-06T05:34:07.417Z,99669.41
2023-03-06T05:36:34.249Z,99675.94
2023-03-06T05:39:01.297Z,99672.63
2023-03-06T05:41:28.080Z,99672.41
2023-03-06T05:43:56.929Z,99671.56
2023-03-06T05:46:23.801Z,99676.78
2023-03-06T05:48:53.138Z,99677.94
2023-03-06T05:51:19.976Z,99682.91
2023-03-06T05:53:47.446Z,99680.97
2023-03-06T05:56:14.456Z,99680.72
2023-03-06T05:58:41.810Z,99681.22
2023-03-06T06:01:11.149Z,99679.31
2023-03-06T06:03:38.866Z,99686.97
2023-03-06T06:06:07.938Z,99693.16
2023-03-06T06:08:35.617Z,99681.69
2023-03-06T06:11:04.144Z,99685.19
2023-03-06T06:13:31.918Z,99693.25
2023-03-06T06:15:58.704Z,99690.22
2023-03-06T06:18:25.883Z,99697.78
2023-03-06T06:20:54.415Z,99695.16
2023-03-06T06:23:22.981Z,99697.19
2023-03-06T06:25:49.782Z,99695.41
2023-03-06T06:28:16.906Z,99699.78
2023-03-06T06:30:43.650Z,99703.31
2023-03-06T06:33:10.675Z,99696.19
2023-03-06T06:35:37.657Z,99695.34
2023-03-06T06:38:04.719Z,99696.34
2023-03-06T06:40:31.628Z,99701.88
2023-03-06T06:42:58.779Z,99699.25
2023-03-06T06:45:25.561Z,99701.66
2023-03-06T06:47:52.672Z,99702.16
2023-03-06T06:50:19.542Z,99693.41
2023-03-06T06:52:46.681Z,99702.22
2023-03-06T06:55:13.583Z,99698.34
2023-03-06T06:57:42.165Z,99694.16
2023-03-06T07:00:09.905Z,99695.84
2023-03-06T07:02:36.996Z,99697.19
2023-03-06T07:05:05.453Z,99694.50
2023-03-06T07:07:38.036Z,99700.19
2023-03-06T07:10:11.568Z,99706.38
2023-03-06T07:12:38.535Z,99700.13
2023-03-06T07:15:06.397Z,99707.81
2023-03-06T07:17:33.491Z,99703.44
2023-03-06T07:20:00.406Z,99709.00
2023-03-06T07:22:29.078Z,99712.59
2023-03-06T07:24:57.142Z,99721.38
2023-03-06T07:27:26.138Z,99721.28
2023-03-06T07:29:52.945Z,99717.34
2023-03-06T07:32:21.021Z,99721.69
2023-03-06T07:34:48.355Z,99722.50
2023-03-06T07:37:15.440Z,99720.44
2023-03-06T07:39:42.308Z,99715.81
2023-03-06T07:42:13.434Z,99716.16
2023-03-06T07:44:40.501Z,99727.00
2023-03-06T07:47:07.905Z,99710.59
2023-03-06T07:49:35.292Z,99720.22
2023-03-06T07:52:02.398Z,99719.19
2023-03-06T07:54:30.751Z,99722.50
2023-03-06T07:56:58.141Z,99729.38
2023-03-06T07:59:25.705Z,99731.72
2023-03-06T08:01:55.544Z,99734.94
2023-03-06T08:04:22.363Z,99735.34
2023-03-06T08:06:49.437Z,99735.34
2023-03-06T08:09:16.249Z,99725.00
2023-03-06T08:11:45.296Z,99737.66
2023-03-06T08:14:12.176Z,99735.03
2023-03-06T08:16:39.400Z,99736.94
2023-03-06T08:19:06.257Z,99728.31
2023-03-06T08:21:33.398Z,99732.66
2023-03-06T08:24:00.240Z,99727.88
2023-03-06T08:26:29.831Z,99733.09
2023-03-06T08:28:58.622Z,99733.16
2023-03-06T08:31:35.042Z,99731.91
2023-03-06T08:34:04.999Z,99726.25
2023-03-06T08:36:32.254Z,99729.34
2023-03-06T08:38:59.556Z,99730.63
2023-03-06T08:41:27.169Z,99728.75
2023-03-06T08:43:54.335Z,99729.09
2023-03-06T08:46:23.816Z,99733.28
2023-03-06T08:48:50.642Z,99733.38
2023-03-06T08:51:18.924Z,99730.25
2023-03-06T08:53:46.505Z,99736.81
2023-03-06T08:56:22.739Z,99726.38
2023-03-06T08:58:50.112Z,99726.09
2023-03-06T09:01:21.175Z,99717.50
2023-03-06T09:03:49.055Z,99730.59
2023-03-06T09:06:17.138Z,99720.59
2023-03-06T09:08:44.692Z,99724.72
2023-03-06T09:11:14.006Z,99716.03
2023-03-06T09:13:42.123Z,99708.66
2023-03-06T09:16:10.662Z,99706.75
2023-03-06T09:18:37.609Z,99702.28
2023-03-06T09:21:05.805Z,99698.47
2023-03-06T09:23:32.940Z,99703.38
2023-03-06T09:26:00.925Z,99700.75
2023-03-06T09:28:28.558Z,99702.38
2023-03-06T09:30:55.862Z,99697.84
2023-03-06T09:33:23.154Z,99685.41
2023-03-06T09:35:53.788Z,99691.22
2023-03-06T09:38:22.785Z,99682.81
2023-03-06T09:40:58.681Z,99680.84
2023-03-06T09:43:31.513Z,99675.59
2023-03-06T09:45:59.431Z,99675.28
2023-03-06T09:48:44.159Z,99671.63
2023-03-06T09:51:16.395Z,99683.16
2023-03-06T09:54:11.990Z,99675.41
2023-03-06T09:56:44.152Z,99670.81
2023-03-06T09:59:20.121Z,99673.94
2023-03-06T10:02:22.087Z,99675.25
2023-03-06T10:04:59.537Z,99672.72
2023-03-06T10:07:54.162Z,99681.41
2023-03-06T10:10:25.739Z,99673.56
2023-03-06T10:13:10.535Z,99673.56
2023-03-06T10:15:41.623Z,99676.09
2023-03-06T10:18:11.819Z,99666.69
2023-03-06T10:21:18.446Z,99672.97
2023-03-06T10:24:05.930Z,99666.34
2023-03-06T10:26:39.977Z,99660.19
2023-03-06T10:29:13.318Z,99661.13
2023-03-06T10:31:49.620Z,99664.50
2023-03-06T10:34:23.966Z,99662.91
2023-03-06T10:36:51.161Z,99669.16
2023-03-06T10:39:21.210Z,99665.63
2023-03-06T10:41:49.078Z,99649.41
2023-03-06T10:44:16.107Z,99648.91
2023-03-06T10:46:47.987Z,99648.78
2023-03-06T10:49:15.018Z,99641.88
2023-03-06T10:51:56.360Z,99637.88
2023-03-06T10:54:23.804Z,99627.50
2023-03-06T10:56:50.622Z,99614.16
2023-03-06T10:59:31.178Z,99616.53
2023-03-06T11:02:13.818Z,99614.16
2023-03-06T11:04:47.350Z,99602.19
2023-03-06T11:07:14.669Z,99598.16
2023-03-06T11:09:43.991Z,99593.50
2023-03-06T11:12:25.845Z,99582.97
2023-03-06T11:15:14.250Z,99579.97
2023-03-06T11:18:04.426Z,99578.41
2023-03-06T11:20:53.402Z,99564.31
2023-03-06T11:23:38.090Z,99553.59
2023-03-06T11:26:17.239Z,99557.81
2023-03-06T11:28:54.752Z,99557.56
2023-03-06T11:31:41.876Z,99550.66
2023-03-06T11:34:11.615Z,99535.34
2023-03-06T11:36:50.745Z,99532.75
2023-03-06T11:39:34.349Z,99535.94
2023-03-06T11:42:28.776Z,99520.28
2023-03-06T11:45:07.498Z,99516.28
2023-03-06T11:47:45.516Z,99509.69
2023-03-06T11:50:18.305Z,99511.09
2023-03-06T11:53:05.049Z,99496.66
2023-03-06T11:55:40.830Z,99492.69
2023-03-06T11:58:23.278Z,99490.81
2023-03-06T12:01:08.115Z,99485.72
2023-03-06T12:03:57.574Z,99474.16
2023-03-06T12:06:48.957Z,99465.66
2023-03-06T12:09:28.221Z,99465.56
2023-03-06T12:11:57.813Z,99462.59
2023-03-06T12:14:36.429Z,99459.81
2023-03-06T12:17:31.403Z,99450.06
2023-03-06T12:20:27.506Z,99453.25
2023-03-06T12:23:15.376Z,99456.53
2023-03-06T12:25:49.111Z,99442.78
2023-03-06T12:28:24.865Z,99455.53
2023-03-06T12:31:16.648Z,99447.09
2023-03-06T12:33:43.395Z,99450.78
2023-03-06T12:36:29.116Z,99440.28
2023-03-06T12:39:14.392Z,99442.59
2023-03-06T12:41:47.653Z,99443.44
2023-03-06T12:44:36.329Z,99440.09
2023-03-06T12:47:10.141Z,99437.66
2023-03-06T12:49:41.529Z,99439.16
2023-03-06T12:52:18.724Z,99438.13
2023-03-06T12:54:48.746Z,99426.72
2023-03-06T12:57:16.364Z,99430.25
2023-03-06T12:59:48.544Z,99428.38
2023-03-06T13:02:30.586Z,99419.38
2023-03-06T13:05:09.099Z,99423.22
2023-03-06T13:08:00.870Z,99429.38
2023-03-06T13:10:32.225Z,99425.47
2023-03-06T13:13:28.297Z,99427.66
2023-03-06T13:16:09.929Z,99418.81
2023-03-06T13:18:37.433Z,99416.56
2023-03-06T13:21:04.949Z,99413.56
2023-03-06T13:23:40.998Z,99412.41
2023-03-06T13:26:14.990Z,99414.09
2023-03-06T13:28:47.611Z,99411.41
2023-03-06T13:31:28.105Z,99405.97
2023-03-06T13:34:13.989Z,99398.09
2023-03-06T13:36:40.752Z,99399.66
2023-03-06T13:39:14.186Z,99393.88
2023-03-06T13:41:57.057Z,99395.25
2023-03-06T13:44:24.145Z,99383.19
2023-03-06T13:47:01.848Z,99376.38
2023-03-06T13:49:29.758Z,99384.78
2023-03-06T13:52:09.673Z,99382.00
2023-03-06T13:54:42.846Z,99378.34
2023-03-06T13:57:35.579Z,99376.41
2023-03-06T14:00:45.770Z,99367.03
2023-03-06T14:03:30.537Z,99365.19
2023-03-06T14:05:58.924Z,99364.88
2023-03-06T14:08:30.549Z,99365.72
2023-03-06T14:11:08.768Z,99365.91
2023-03-06T14:13:47.421Z,99363.28
2023-03-06T14:16:49.828Z,99362.25
2023-03-06T14:19:19.189Z,99361.69
2023-03-06T14:21:57.396Z,99360.38
2023-03-06T14:24:36.840Z,99356.72
2023-03-06T14:27:04.453Z,99363.81
2023-03-06T14:29:33.264Z,99358.22
2023-03-06T14:32:02.017Z,99366.97
2023-03-06T14:34:40.632Z,99368.16
2023-03-06T14:37:20.959Z,99358.06
2023-03-06T14:39:47.866Z,99357.81
2023-03-06T14:42:21.509Z,99356.38
2023-03-06T14:44:49.954Z,99352.94
2023-03-06T14:47:27.587Z,99353.78
2023-03-06T14:50:29.891Z,99341.97
2023-03-06T14:53:19.245Z,99347.00
2023-03-06T14:56:06.930Z,99343.31
2023-03-06T14:58:45.961Z,99342.81
2023-03-06T15:01:14.709Z,99342.91
2023-03-06T15:04:01.319Z,99344.66
2023-03-06T15:06:39.819Z,99340.09
2023-03-06T15:09:17.650Z,99344.31
2023-03-06T15:12:20.077Z,99334.41
2023-03-06T15:15:03.670Z,99336.53
2023-03-06T15:17:32.615Z,99337.03
2023-03-06T15:20:01.310Z,99342.19
2023-03-06T15:22:39.186Z,99340.31
2023-03-06T15:25:23.469Z,99330.09
2023-03-06T15:27:53.933Z,99326.56
2023-03-06T15:30:29.553Z,99324.03
2023-03-06T15:33:24.337Z,99321.53
2023-03-06T15:36:03.742Z,99321.53
2023-03-06T15:38:41.879Z,99319.59
2023-03-06T15:41:33.113Z,99325.38
2023-03-06T15:44:01.616Z,99324.00
2023-03-06T15:46:29.522Z,99323.41
2023-03-06T15:49:03.149Z,99327.13
2023-03-06T15:51:31.729Z,99326.13
2023-03-06T15:54:11.128Z,99325.19
2023-03-06T15:56:41.781Z,99329.66
2023-03-06T15:59:16.900Z,99336.25
2023-03-06T16:01:44.013Z,99338.25
2023-03-06T16:04:10.838Z,99332.59
2023-03-06T16:06:37.895Z,99333.03
2023-03-06T16:09:05.892Z,99341.56
2023-03-06T16:11:43.367Z,99341.38
2023-03-06T16:14:23.470Z,99343.16
2023-03-06T16:16:52.294Z,99346.19
2023-03-06T16:19:27.140Z,99344.75
2023-03-06T16:21:59.229Z,99347.69
2023-03-06T16:24:26.650Z,99341.94
2023-03-06T16:26:55.120Z,99341.94
2023-03-06T16:29:25.595Z,99351.13
2023-03-06T16:31:55.031Z,99344.44
2023-03-06T16:34:21.972Z,99345.28
2023-03-06T16:36:49.614Z,99348.44
2023-03-06T16:39:18.997Z,99346.84
2023-03-06T16:41:46.260Z,99353.75
2023-03-06T16:44:13.525Z,99356.84
2023-03-06T16:46:45.900Z,99354.47
2023-03-06T16:49:23.722Z,99358.63
2023-03-06T16:51:51.726Z,99347.56
2023-03-06T16:54:18.973Z,99351.13
2023-03-06T16:56:46.204Z,99354.38
2023-03-06T16:59:13.217Z,99360.75
2023-03-06T17:01:43.104Z,99366.00
2023-03-06T17:04:10.712Z,99364.97
2023-03-06T17:06:38.471Z,99367.41
2023-03-06T17:09:05.351Z,99363.88
2023-03-06T17:11:32.434Z,99357.03
2023-03-06T17:13:59.260Z,99357.19
2023-03-06T17:16:26.634Z,99364.88
2023-03-06T17:18:54.958Z,99366.03
2023-03-06T17:21:22.105Z,99363.19
2023-03-06T17:23:50.818Z,99362.66
2023-03-06T17:26:19.162Z,99359.03
2023-03-06T17:28:47.072Z,99354.28
2023-03-06T17:31:26.599Z,99358.50
2023-03-06T17:33:59.263Z,99356.91
2023-03-06T17:36:27.773Z,99345.00
2023-03-06T17:38:56.626Z,99355.75
2023-03-06T17:41:24.623Z,99357.53
2023-03-06T17:43:53.100Z,99347.16
2023-03-06T17:46:20.231Z,99351.59
2023-03-06T17:48:47.051Z,99347.25
2023-03-06T17:51:14.332Z,99342.53
2023-03-06T17:53:41.257Z,99349.78
2023-03-06T17:56:11.686Z,99350.53
2023-03-06T17:58:38.596Z,99356.91
2023-03-06T18:01:14.946Z,99349.16
2023-03-06T18:03:46.253Z,99351.16
2023-03-06T18:06:13.663Z,99358.06
2023-03-06T18:08:41.071Z,99354.31
2023-03-06T18:11:09.740Z,99360.28
2023-03-06T18:13:39.911Z,99363.28
2023-03-06T18:16:08.183Z,99361.28
2023-03-06T18:18:35.679Z,99362.44
2023-03-06T18:21:04.734Z,99356.84
2023-03-06T18:23:31.691Z,99353.59
2023-03-06T18:26:09.786Z,99362.91
2023-03-06T18:28:36.798Z,99356.91
2023-03-06T18:31:08.411Z,99354.31
2023-03-06T18:33:35.444Z,99351.16
2023-03-06T18:36:03.664Z,99350.38
2023-03-06T18:38:31.096Z,99356.53
2023-03-06T18:40:58.181Z,99358.00
2023-03-06T18:43:24.922Z,99365.75
2023-03-06T18:45:58.264Z,99359.13
2023-03-06T18:48:25.325Z,99365.88
2023-03-06T18:50:52.367Z,99359.97
2023-03-06T18:53:20.320Z,99358.66
2023-03-06T18:55:51.722Z,99347.31
2023-03-06T18:58:19.000Z,99351.31
2023-03-06T19:00:46.339Z,99346.31
2023-03-06T19:03:13.218Z,99341.84
2023-03-06T19:05:47.757Z,99324.91
2023-03-06T19:08:16.687Z,99335.78
2023-03-06T19:10:49.637Z,99354.59
2023-03-06T19:13:16.510Z,99355.06
2023-03-06T19:15:48.123Z,99345.47
2023-03-06T19:18:18.005Z,99345.19
2023-03-06T19:20:45.360Z,99351.75
2023-03-06T19:23:12.230Z,99340.56
2023-03-06T19:25:39.465Z,99352.88
2023-03-06T19:28:06.315Z,99366.56
2023-03-06T19:30:33.620Z,99356.03
2023-03-06T19:33:00.402Z,99362.19
2023-03-06T19:35:27.616Z,99357.06
2023-03-06T19:37:54.448Z,99344.63
2023-03-06T19:40:21.565Z,99347.28
2023-03-06T19:42:48.606Z,99343.91
2023-03-06T19:45:15.783Z,99341.53
2023-03-06T19:47:42.637Z,99346.06
2023-03-06T19:50:10.248Z,99342.63
2023-03-06T19:52:38.380Z,99344.22
2023-03-06T19:55:06.691Z,99352.13
2023-03-06T19:57:33.524Z,99343.53
2023-03-06T20:00:01.838Z,99337.31
2023-03-06T20:02:29.095Z,99330.25
2023-03-06T20:04:56.293Z,99333.81
2023-03-06T20:07:23.201Z,99337.66
2023-03-06T20:09:50.299Z,99332.50
2023-03-06T20:12:17.147Z,99337.97
2023-03-06T20:14:46.068Z,99340.63
2023-03-06T20:17:12.929Z,99328.75
2023-03-06T20:19:40.226Z,99330.28
2023-03-06T20:22:07.031Z,99330.63
2023-03-06T20:24:34.078Z,99333.16
2023-03-06T20:27:00.948Z,99329.50
2023-03-06T20:29:28.440Z,99325.16
2023-03-06T20:31:57.518Z,99342.66
2023-03-06T20:34:25.793Z,99349.63
2023-03-06T20:36:53.067Z,99340.94
2023-03-06T20:39:24.060Z,99350.19
2023-03-06T20:41:50.924Z,99350.69
2023-03-06T20:44:21.108Z,99350.28
2023-03-06T20:46:47.921Z,99352.25
2023-03-06T20:49:15.187Z,99353.84
2023-03-06T20:51:42.325Z,99359.78
2023-03-06T20:54:13.122Z,99360.78
2023-03-06T20:56:41.370Z,99354.47
2023-03-06T20:59:11.754Z,99351.25
2023-03-06T21:01:41.726Z,99352.78
2023-03-06T21:04:10.961Z,99349.47
2023-03-06T21:06:38.222Z,99345.13
2023-03-06T21:09:06.780Z,99345.34
2023-03-06T21:11:35.085Z,99342.28
2023-03-06T21:14:02.364Z,99331.16
2023-03-06T21:16:33.027Z,99339.53
2023-03-06T21:19:00.585Z,99333.31
2023-03-06T21:21:31.238Z,99350.94
2023-03-06T21:23:58.416Z,99354.84
2023-03-06T21:26:28.852Z,99357.94
2023-03-06T21:28:58.888Z,99355.69
2023-03-06T21:31:28.608Z,99349.56
2023-03-06T21:33:55.981Z,99357.53
2023-03-06T21:36:23.513Z,99353.16
2023-03-06T21:38:52.450Z,99353.25
2023-03-06T21:41:30.428Z,99348.03
2023-03-06T21:44:00.086Z,99344.03
2023-03-06T21:46:27.934Z,99343.94
2023-03-06T21:48:56.000Z,99349.06
2023-03-06T21:51:23.759Z,99346.94
2023-03-06T21:53:52.073Z,99348.31
2023-03-06T21:56:21.598Z,99346.56
2023-03-06T21:58:48.744Z,99343.38
2023-03-06T22:01:22.250Z,99344.03
2023-03-06T22:03:49.337Z,99342.25
2023-03-06T22:06:22.059Z,99345.16
2023-03-06T22:08:49.476Z,99343.38
2023-03-06T22:11:18.990Z,99344.06
2023-03-06T22:13:48.149Z,99345.63
2023-03-06T22:16:15.945Z,99336.97
2023-03-06T22:18:48.066Z,99329.47
2023-03-06T22:21:17.488Z,99341.72
2023-03-06T22:23:48.243Z,99340.88
2023-03-06T22:26:15.457Z,99336.81
2023-03-06T22:28:42.560Z,99335.75
2023-03-06T22:31:18.644Z,99338.81
2023-03-06T22:33:46.205Z,99336.03
2023-03-06T22:36:15.227Z,99339.31
2023-03-06T22:38:44.823Z,99328.88
2023-03-06T22:41:13.702Z,99331.41
2023-03-06T22:43:40.887Z,99331.84
2023-03-06T22:46:11.333Z,99333.44
2023-03-06T22:48:38.578Z,99335.13
2023-03-06T22:51:08.621Z,99336.97
2023-03-06T22:53:36.428Z,99338.94
2023-03-06T22:56:05.382Z,99341.78
2023-03-06T22:58:36.995Z,99343.56
2023-03-06T23:01:12.122Z,99339.09
2023-03-06T23:03:41.886Z,99338.25
2023-03-06T23:06:14.427Z,99340.78
2023-03-06T23:08:42.508Z,99350.03
2023-03-06T23:11:12.018Z,99337.22
2023-03-06T23:13:39.150Z,99337.25
2023-03-06T23:16:10.423Z,99345.72
2023-03-06T23:18:39.487Z,99349.19
2023-03-06T23:21:15.920Z,99335.56
2023-03-06T23:23:44.334Z,99340.16
2023-03-06T23:26:14.720Z,99346.00
2023-03-06T23:28:42.171Z,99342.84
2023-03-06T23:31:15.061Z,99343.91
2023-03-06T23:33:42.620Z,99339.38
2023-03-06T23:36:12.262Z,99339.47
2023-03-06T23:38:39.632Z,99340.47
2023-03-06T23:41:09.078Z,99337.53
2023-03-06T23:43:36.459Z,99341.31
2023-03-06T23:46:03.939Z,99341.09
2023-03-06T23:48:31.543Z,99343.97
2023-03-06T23:50:58.515Z,99343.19
2023-03-06T23:53:26.098Z,99341.38
2023-03-06T23:55:52.922Z,99347.63
2023-03-06T23:58:20.154Z,99342.28
